createdAt,value
2022-12-01T00:01:06.709Z,85.52
2022-12-01T00:03:34.084Z,86.56
2022-12-01T00:06:12.346Z,86.76
2022-12-01T00:08:39.140Z,85.53
2022-12-01T00:11:08.173Z,85.76
2022-12-01T00:13:35.824Z,86.31
2022-12-01T00:16:12.364Z,86.08
2022-12-01T00:18:38.954Z,86.75
2022-12-01T00:21:05.901Z,86.74
2022-12-01T00:23:32.383Z,86.54
2022-12-01T00:26:05.553Z,86.36
2022-12-01T00:28:32.244Z,86.75
2022-12-01T00:31:00.104Z,85.96
2022-12-01T00:33:26.735Z,86.01
2022-12-01T00:36:03.541Z,86.49
2022-12-01T00:38:30.564Z,86.35
2022-12-01T00:40:57.390Z,86.75
2022-12-01T00:43:24.885Z,86.08
2022-12-01T00:45:51.841Z,87.39
2022-12-01T00:48:18.689Z,86.43
2022-12-01T00:50:45.554Z,86.88
2022-12-01T00:53:12.053Z,87.43
2022-12-01T00:55:40.151Z,86.91
2022-12-01T00:58:07.428Z,87.39
2022-12-01T01:00:34.101Z,87.58
2022-12-01T01:03:00.555Z,85.84
2022-12-01T01:05:27.048Z,85.56
2022-12-01T01:07:53.564Z,86.80
2022-12-01T01:10:20.108Z,86.19
2022-12-01T01:12:46.623Z,87.28
2022-12-01T01:15:13.104Z,87.03
2022-12-01T01:17:39.617Z,87.43
2022-12-01T01:20:06.883Z,87.51
2022-12-01T01:22:34.937Z,87.22
2022-12-01T01:25:01.746Z,87.39
2022-12-01T01:27:28.203Z,87.91
2022-12-01T01:29:54.683Z,87.77
2022-12-01T01:32:21.179Z,87.81
2022-12-01T01:34:47.654Z,88.49
2022-12-01T01:37:14.159Z,89.13
2022-12-01T01:39:40.600Z,87.66
2022-12-01T01:42:13.256Z,87.61
2022-12-01T01:44:57.110Z,87.04
2022-12-01T01:47:32.658Z,87.81
2022-12-01T01:50:06.201Z,88.14
2022-12-01T01:52:36.469Z,88.34
2022-12-01T01:55:03.512Z,87.82
2022-12-01T01:57:33.323Z,87.31
2022-12-01T02:00:11.867Z,88.06
2022-12-01T02:02:43.564Z,87.89
2022-12-01T02:05:16.385Z,87.55
2022-12-01T02:07:43.104Z,87.39
2022-12-01T02:10:13.225Z,88.55
2022-12-01T02:12:58.300Z,88.48
2022-12-01T02:15:49.426Z,88.19
2022-12-01T02:18:41.636Z,87.43
2022-12-01T02:21:08.118Z,88.36
2022-12-01T02:23:43.388Z,88.25
2022-12-01T02:26:44.963Z,88.12
2022-12-01T02:29:23.700Z,88.47
2022-12-01T02:32:04.693Z,88.72
2022-12-01T02:34:55.565Z,87.99
2022-12-01T02:37:34.142Z,88.53
2022-12-01T02:40:20.766Z,87.49
2022-12-01T02:43:03.595Z,86.74
2022-12-01T02:45:37.188Z,86.01
2022-12-01T02:48:09.784Z,87.16
2022-12-01T02:50:39.556Z,88.36
2022-12-01T02:53:08.734Z,87.20
2022-12-01T02:55:35.466Z,87.59
2022-12-01T02:58:02.004Z,87.80
2022-12-01T03:00:30.586Z,87.45
2022-12-01T03:03:27.760Z,86.46
2022-12-01T03:06:02.994Z,87.35
2022-12-01T03:08:46.026Z,86.16
2022-12-01T03:11:27.156Z,87.97
2022-12-01T03:14:11.932Z,88.13
2022-12-01T03:16:47.538Z,88.79
2022-12-01T03:19:38.545Z,88.43
2022-12-01T03:22:10.334Z,88.67
2022-12-01T03:24:38.939Z,88.65
2022-12-01T03:27:06.332Z,88.33
2022-12-01T03:29:43.567Z,89.09
2022-12-01T03:32:24.911Z,89.23
2022-12-01T03:34:59.154Z,88.55
2022-12-01T03:37:46.896Z,88.16
2022-12-01T03:40:18.159Z,89.33
2022-12-01T03:42:57.052Z,88.67
2022-12-01T03:45:52.780Z,89.11
2022-12-01T03:48:19.512Z,88.30
2022-12-01T03:50:56.656Z,88.39
2022-12-01T03:53:28.222Z,88.50
2022-12-01T03:56:02.892Z,88.72
2022-12-01T03:58:34.990Z,88.70
2022-12-01T04:01:05.315Z,88.38
2022-12-01T04:03:31.868Z,88.23
2022-12-01T04:05:58.961Z,87.41
2022-12-01T04:08:25.643Z,88.66
2022-12-01T04:10:52.185Z,88.11
2022-12-01T04:13:25.585Z,88.01
2022-12-01T04:15:55.447Z,87.76
2022-12-01T04:18:22.359Z,88.32
2022-12-01T04:20:50.613Z,87.75
2022-12-01T04:23:35.692Z,88.47
2022-12-01T04:26:04.556Z,88.71
2022-12-01T04:28:31.037Z,88.99
2022-12-01T04:30:57.563Z,87.59
2022-12-01T04:33:24.131Z,87.64
2022-12-01T04:35:58.595Z,87.82
2022-12-01T04:38:30.294Z,87.56
2022-12-01T04:40:57.427Z,88.79
2022-12-01T04:43:23.931Z,87.14
2022-12-01T04:45:50.447Z,88.48
2022-12-01T04:48:16.986Z,87.74
2022-12-01T04:50:43.432Z,87.82
2022-12-01T04:53:09.905Z,87.91
2022-12-01T04:55:39.047Z,88.09
2022-12-01T04:58:06.050Z,88.17
2022-12-01T05:00:33.288Z,87.61
2022-12-01T05:03:00.125Z,87.97
2022-12-01T05:05:26.976Z,88.25
2022-12-01T05:07:53.556Z,88.36
2022-12-01T05:10:20.376Z,88.55
2022-12-01T05:12:47.042Z,88.35
2022-12-01T05:15:13.580Z,88.79
2022-12-01T05:17:40.094Z,88.32
2022-12-01T05:20:26.025Z,88.33
2022-12-01T05:23:09.811Z,87.78
2022-12-01T05:25:39.100Z,87.80
2022-12-01T05:28:06.538Z,87.94
2022-12-01T05:30:33.094Z,87.38
2022-12-01T05:32:59.700Z,88.40
2022-12-01T05:35:26.342Z,88.48
2022-12-01T05:37:52.844Z,87.92
2022-12-01T05:40:19.402Z,88.92
2022-12-01T05:42:45.922Z,88.66
2022-12-01T05:45:12.413Z,87.93
2022-12-01T05:47:38.884Z,88.09
2022-12-01T05:50:06.279Z,88.58
2022-12-01T05:52:36.756Z,87.87
2022-12-01T05:55:04.800Z,88.11
2022-12-01T05:57:32.548Z,87.99
2022-12-01T05:59:59.581Z,87.08
2022-12-01T06:02:29.515Z,86.79
2022-12-01T06:04:55.996Z,87.83
2022-12-01T06:07:25.211Z,86.64
2022-12-01T06:09:53.014Z,87.42
2022-12-01T06:12:19.927Z,87.51
2022-12-01T06:14:46.452Z,87.19
2022-12-01T06:17:12.929Z,87.27
2022-12-01T06:19:39.517Z,86.90
2022-12-01T06:22:06.090Z,87.04
2022-12-01T06:24:32.589Z,87.31
2022-12-01T06:26:59.102Z,86.17
2022-12-01T06:29:25.607Z,86.74
2022-12-01T06:31:52.232Z,86.95
2022-12-01T06:34:18.775Z,86.46
2022-12-01T06:36:45.258Z,86.48
2022-12-01T06:39:11.815Z,87.07
2022-12-01T06:41:39.177Z,86.14
2022-12-01T06:44:05.897Z,85.51
2022-12-01T06:46:32.531Z,86.17
2022-12-01T06:48:59.082Z,86.56
2022-12-01T06:51:25.750Z,86.92
2022-12-01T06:53:58.644Z,86.41
2022-12-01T06:56:28.681Z,86.17
2022-12-01T06:58:55.290Z,87.49
2022-12-01T07:01:22.141Z,86.96
2022-12-01T07:03:50.440Z,87.02
2022-12-01T07:06:17.989Z,87.68
2022-12-01T07:08:44.926Z,87.12
2022-12-01T07:11:13.446Z,86.85
2022-12-01T07:13:41.122Z,86.75
2022-12-01T07:16:09.579Z,85.93
2022-12-01T07:18:37.114Z,86.71
2022-12-01T07:21:07.079Z,86.26
2022-12-01T07:23:34.052Z,86.01
2022-12-01T07:26:06.517Z,86.22
2022-12-01T07:28:33.755Z,86.49
2022-12-01T07:31:13.898Z,86.49
2022-12-01T07:33:40.653Z,85.53
2022-12-01T07:36:08.097Z,86.32
2022-12-01T07:38:35.703Z,86.28
2022-12-01T07:41:03.621Z,86.65
2022-12-01T07:43:31.835Z,85.77
2022-12-01T07:46:11.317Z,87.01
2022-12-01T07:48:40.086Z,86.42
2022-12-01T07:51:08.529Z,85.09
2022-12-01T07:53:35.676Z,85.33
2022-12-01T07:56:08.222Z,86.05
2022-12-01T07:58:35.695Z,86.38
2022-12-01T08:01:16.986Z,85.70
2022-12-01T08:03:43.845Z,85.77
2022-12-01T08:06:10.765Z,85.98
2022-12-01T08:08:39.069Z,85.72
2022-12-01T08:11:08.304Z,85.87
2022-12-01T08:13:35.028Z,85.96
2022-12-01T08:16:05.956Z,85.42
2022-12-01T08:18:37.869Z,85.46
2022-12-01T08:21:05.721Z,84.93
2022-12-01T08:23:33.113Z,85.26
2022-12-01T08:26:04.258Z,84.48
2022-12-01T08:28:30.856Z,85.03
2022-12-01T08:30:57.651Z,85.20
2022-12-01T08:33:24.456Z,85.51
2022-12-01T08:35:51.011Z,85.66
2022-12-01T08:38:17.730Z,84.45
2022-12-01T08:40:44.303Z,84.68
2022-12-01T08:43:23.172Z,84.26
2022-12-01T08:45:59.290Z,84.92
2022-12-01T08:48:26.235Z,85.04
2022-12-01T08:50:52.741Z,84.91
2022-12-01T08:53:19.234Z,84.85
2022-12-01T08:55:45.766Z,84.99
2022-12-01T08:58:12.336Z,84.97
2022-12-01T09:00:38.892Z,84.64
2022-12-01T09:03:05.421Z,84.63
2022-12-01T09:05:31.954Z,86.22
2022-12-01T09:08:16.784Z,83.99
2022-12-01T09:10:51.596Z,83.57
2022-12-01T09:13:18.194Z,84.24
2022-12-01T09:15:44.883Z,84.66
2022-12-01T09:18:11.391Z,84.51
2022-12-01T09:20:37.954Z,85.26
2022-12-01T09:23:04.626Z,84.72
2022-12-01T09:25:31.097Z,84.32
2022-12-01T09:27:57.598Z,84.20
2022-12-01T09:30:24.132Z,85.31
2022-12-01T09:32:50.762Z,84.82
2022-12-01T09:35:22.029Z,84.68
2022-12-01T09:37:49.881Z,85.05
2022-12-01T09:40:16.583Z,85.17
2022-12-01T09:42:45.922Z,84.70
2022-12-01T09:45:25.474Z,84.58
2022-12-01T09:47:55.848Z,84.78
2022-12-01T09:50:25.501Z,84.56
2022-12-01T09:52:57.105Z,84.48
2022-12-01T09:55:25.688Z,84.10
2022-12-01T09:57:55.208Z,84.71
2022-12-01T10:00:30.019Z,85.18
2022-12-01T10:03:15.099Z,84.69
2022-12-01T10:06:26.184Z,86.44
2022-12-01T10:08:51.344Z,85.99
2022-12-01T10:11:39.076Z,85.92
2022-12-01T10:14:17.944Z,84.54
2022-12-01T10:17:11.144Z,84.47
2022-12-01T10:19:44.655Z,83.57
2022-12-01T10:22:36.081Z,83.92
2022-12-01T10:25:20.091Z,84.19
2022-12-01T10:27:59.735Z,84.33
2022-12-01T10:30:26.322Z,83.93
2022-12-01T10:32:55.464Z,84.57
2022-12-01T10:35:25.354Z,83.77
2022-12-01T10:38:00.285Z,82.75
2022-12-01T10:40:27.920Z,83.02
2022-12-01T10:42:55.667Z,82.31
2022-12-01T10:45:27.549Z,83.24
2022-12-01T10:48:21.792Z,82.58
2022-12-01T10:50:54.294Z,83.44
2022-12-01T10:53:23.855Z,84.09
2022-12-01T10:55:56.506Z,84.25
2022-12-01T10:58:23.134Z,84.45
2022-12-01T11:01:03.680Z,83.78
2022-12-01T11:03:33.270Z,83.40
2022-12-01T11:06:00.867Z,82.98
2022-12-01T11:08:36.364Z,82.97
2022-12-01T11:11:03.472Z,84.11
2022-12-01T11:13:34.039Z,84.08
2022-12-01T11:16:03.645Z,83.77
2022-12-01T11:18:37.620Z,83.75
2022-12-01T11:21:12.269Z,83.27
2022-12-01T11:23:46.049Z,84.62
2022-12-01T11:26:24.133Z,84.36
2022-12-01T11:28:53.911Z,85.19
2022-12-01T11:31:24.354Z,84.16
2022-12-01T11:33:56.279Z,84.67
2022-12-01T11:36:35.760Z,83.54
2022-12-01T11:39:03.212Z,83.51
2022-12-01T11:41:32.411Z,82.83
2022-12-01T11:44:02.755Z,83.77
2022-12-01T11:46:45.976Z,82.87
2022-12-01T11:49:19.832Z,83.93
2022-12-01T11:51:46.732Z,83.52
2022-12-01T11:54:20.743Z,83.93
2022-12-01T11:56:56.181Z,83.11
2022-12-01T11:59:35.731Z,82.74
2022-12-01T12:02:17.478Z,83.51
2022-12-01T12:05:11.529Z,84.08
2022-12-01T12:07:53.478Z,83.59
2022-12-01T12:10:34.616Z,84.47
2022-12-01T12:13:07.141Z,83.10
2022-12-01T12:15:58.028Z,83.69
2022-12-01T12:18:52.451Z,83.89
2022-12-01T12:21:18.790Z,83.47
2022-12-01T12:23:54.293Z,84.52
2022-12-01T12:26:28.712Z,84.18
2022-12-01T12:28:55.203Z,83.62
2022-12-01T12:32:09.916Z,84.24
2022-12-01T12:34:44.265Z,83.78
2022-12-01T12:37:24.564Z,82.91
2022-12-01T12:39:59.388Z,81.45
2022-12-01T12:42:50.357Z,82.09
2022-12-01T12:45:38.064Z,82.43
2022-12-01T12:48:16.727Z,83.37
2022-12-01T12:50:50.792Z,83.51
2022-12-01T12:53:22.208Z,83.23
2022-12-01T12:55:52.841Z,83.31
2022-12-01T12:58:23.105Z,83.73
2022-12-01T13:00:56.182Z,84.01
2022-12-01T13:03:42.376Z,82.78
2022-12-01T13:06:34.976Z,82.30
2022-12-01T13:09:14.203Z,83.51
2022-12-01T13:12:15.868Z,83.04
2022-12-01T13:14:59.466Z,82.38
2022-12-01T13:17:38.542Z,82.85
2022-12-01T13:20:06.252Z,82.64
2022-12-01T13:22:36.973Z,82.53
2022-12-01T13:25:04.421Z,81.92
2022-12-01T13:27:35.851Z,82.73
2022-12-01T13:30:03.358Z,82.47
2022-12-01T13:32:40.294Z,83.22
2022-12-01T13:35:19.065Z,83.53
2022-12-01T13:37:45.641Z,83.71
2022-12-01T13:40:31.384Z,83.31
2022-12-01T13:43:10.623Z,82.76
2022-12-01T13:45:40.327Z,83.28
2022-12-01T13:48:30.199Z,82.97
2022-12-01T13:51:00.136Z,81.94
2022-12-01T13:53:34.266Z,82.20
2022-12-01T13:56:03.856Z,82.03
2022-12-01T13:58:33.085Z,82.31
2022-12-01T14:01:22.423Z,81.09
2022-12-01T14:03:57.081Z,81.86
2022-12-01T14:06:49.388Z,81.25
2022-12-01T14:09:28.047Z,82.86
2022-12-01T14:11:58.307Z,82.71
2022-12-01T14:14:28.319Z,82.14
2022-12-01T14:17:00.921Z,81.64
2022-12-01T14:19:52.016Z,81.33
2022-12-01T14:22:35.779Z,82.09
2022-12-01T14:25:05.390Z,81.33
2022-12-01T14:27:42.534Z,82.07
2022-12-01T14:30:45.683Z,81.52
2022-12-01T14:33:40.028Z,80.72
2022-12-01T14:36:34.851Z,82.80
2022-12-01T14:39:18.895Z,82.73
2022-12-01T14:41:51.076Z,82.30
2022-12-01T14:44:27.413Z,82.86
2022-12-01T14:46:59.999Z,82.91
2022-12-01T14:49:32.543Z,83.31
2022-12-01T14:52:05.173Z,83.34
2022-12-01T14:54:42.004Z,83.32
2022-12-01T14:57:16.343Z,83.59
2022-12-01T14:59:43.402Z,82.55
2022-12-01T15:02:12.215Z,83.05
2022-12-01T15:05:12.219Z,83.83
2022-12-01T15:07:42.192Z,82.71
2022-12-01T15:10:21.220Z,83.22
2022-12-01T15:12:49.386Z,83.65
2022-12-01T15:15:24.193Z,84.16
2022-12-01T15:17:52.444Z,83.84
2022-12-01T15:20:35.738Z,84.29
2022-12-01T15:23:09.013Z,83.96
2022-12-01T15:25:37.060Z,83.70
2022-12-01T15:28:16.053Z,83.34
2022-12-01T15:30:46.450Z,82.79
2022-12-01T15:33:26.775Z,83.07
2022-12-01T15:35:55.031Z,82.74
2022-12-01T15:38:25.104Z,83.04
2022-12-01T15:41:27.885Z,83.64
2022-12-01T15:43:41.270Z,83.58
2022-12-01T15:46:17.361Z,82.48
2022-12-01T15:48:45.631Z,82.63
2022-12-01T15:51:27.849Z,83.25
2022-12-01T15:54:01.169Z,83.26
2022-12-01T15:56:35.066Z,83.31
2022-12-01T15:59:20.758Z,81.85
2022-12-01T16:01:47.374Z,82.10
2022-12-01T16:04:22.917Z,81.90
2022-12-01T16:06:59.405Z,81.97
2022-12-01T16:09:58.506Z,82.29
2022-12-01T16:12:32.910Z,81.74
2022-12-01T16:15:12.137Z,82.55
2022-12-01T16:17:49.171Z,82.48
2022-12-01T16:20:23.779Z,81.89
2022-12-01T16:22:59.066Z,83.05
2022-12-01T16:25:29.747Z,82.32
2022-12-01T16:27:57.481Z,82.15
2022-12-01T16:30:27.334Z,82.29
2022-12-01T16:33:21.844Z,81.67
2022-12-01T16:35:48.636Z,81.64
2022-12-01T16:38:20.547Z,82.79
2022-12-01T16:40:58.347Z,82.18
2022-12-01T16:43:27.337Z,81.99
2022-12-01T16:46:03.195Z,82.88
2022-12-01T16:48:30.917Z,82.50
2022-12-01T16:51:01.551Z,82.48
2022-12-01T16:53:28.079Z,82.12
2022-12-01T16:55:56.654Z,81.69
2022-12-01T16:58:23.539Z,82.17
2022-12-01T17:00:53.440Z,83.13
2022-12-01T17:03:22.264Z,81.45
2022-12-01T17:05:49.120Z,81.86
2022-12-01T17:08:16.904Z,81.71
2022-12-01T17:10:45.654Z,82.30
2022-12-01T17:13:13.045Z,81.75
2022-12-01T17:15:44.222Z,82.02
2022-12-01T17:18:11.384Z,82.02
2022-12-01T17:20:37.957Z,82.44
2022-12-01T17:23:05.055Z,82.02
2022-12-01T17:25:31.993Z,82.52
2022-12-01T17:27:58.549Z,82.00
2022-12-01T17:30:25.080Z,81.63
2022-12-01T17:32:51.604Z,80.93
2022-12-01T17:35:18.213Z,81.32
2022-12-01T17:37:44.759Z,82.05
2022-12-01T17:40:16.093Z,81.52
2022-12-01T17:50:40.993Z,82.70
2022-12-01T17:53:07.504Z,82.80
2022-12-01T17:55:34.121Z,81.74
2022-12-01T17:58:00.646Z,81.77
2022-12-01T18:00:27.322Z,81.85
2022-12-01T18:02:53.925Z,82.30
2022-12-01T18:05:20.706Z,81.99
2022-12-01T18:07:47.782Z,82.65
2022-12-01T18:10:14.413Z,82.15
2022-12-01T18:12:40.944Z,81.91
2022-12-01T18:15:08.276Z,82.34
2022-12-01T18:17:34.881Z,81.83
2022-12-01T18:20:01.542Z,80.71
2022-12-01T18:22:28.258Z,80.97
2022-12-01T18:24:56.301Z,80.70
2022-12-01T18:27:22.996Z,81.88
2022-12-01T18:29:49.544Z,82.30
2022-12-01T18:32:16.926Z,81.04
2022-12-01T18:34:43.602Z,81.39
2022-12-01T18:37:10.144Z,80.10
2022-12-01T18:39:36.689Z,81.37
2022-12-01T18:42:03.343Z,81.24
2022-12-01T18:44:30.049Z,81.67
2022-12-01T18:46:57.746Z,80.88
2022-12-01T18:49:24.735Z,80.33
2022-12-01T18:51:51.330Z,81.55
2022-12-01T18:54:17.968Z,81.36
2022-12-01T18:56:45.307Z,81.19
2022-12-01T18:59:13.726Z,81.24
2022-12-01T19:01:44.106Z,80.64
2022-12-01T19:04:11.826Z,80.30
2022-12-01T19:06:39.629Z,79.93
2022-12-01T19:09:09.185Z,80.49
2022-12-01T19:11:40.617Z,81.06
2022-12-01T19:14:08.513Z,80.13
2022-12-01T19:16:35.329Z,80.30
2022-12-01T19:19:02.063Z,81.18
2022-12-01T19:21:28.694Z,80.81
2022-12-01T19:23:55.357Z,81.62
2022-12-01T19:26:26.053Z,79.94
2022-12-01T19:28:52.907Z,80.55
2022-12-01T19:31:24.949Z,81.91
2022-12-01T19:33:54.856Z,81.80
2022-12-01T19:36:24.260Z,82.07
2022-12-01T19:38:51.480Z,81.15
2022-12-01T19:41:23.147Z,81.72
2022-12-01T19:43:49.804Z,80.68
2022-12-01T19:46:19.849Z,80.24
2022-12-01T19:48:48.391Z,79.98
2022-12-01T19:51:23.454Z,79.69
2022-12-01T19:53:50.486Z,79.75
2022-12-01T19:56:17.883Z,80.01
2022-12-01T19:58:44.580Z,79.63
2022-12-01T20:01:13.661Z,81.35
2022-12-01T20:03:41.032Z,80.35
2022-12-01T20:06:12.390Z,81.71
2022-12-01T20:08:41.871Z,82.17
2022-12-01T20:11:08.755Z,81.05
2022-12-01T20:13:37.842Z,80.49
2022-12-01T20:16:09.279Z,79.71
2022-12-01T20:18:36.619Z,80.52
2022-12-01T20:21:17.458Z,81.22
2022-12-01T20:23:46.321Z,81.43
2022-12-01T20:26:14.385Z,80.44
2022-12-01T20:28:41.923Z,80.47
2022-12-01T20:31:14.944Z,81.29
2022-12-01T20:33:42.494Z,80.40
2022-12-01T20:36:09.800Z,80.74
2022-12-01T20:38:37.477Z,80.69
2022-12-01T20:41:05.352Z,80.85
2022-12-01T20:43:33.053Z,82.53
2022-12-01T20:45:59.916Z,82.40
2022-12-01T20:48:27.669Z,83.37
2022-12-01T20:50:54.365Z,82.53
2022-12-01T20:53:21.479Z,81.66
2022-12-01T20:55:48.271Z,81.82
2022-12-01T20:58:15.524Z,81.96
2022-12-01T21:00:45.647Z,82.28
2022-12-01T21:03:13.054Z,80.96
2022-12-01T21:05:40.745Z,81.41
2022-12-01T21:08:10.294Z,80.61
2022-12-01T21:10:46.299Z,81.14
2022-12-01T21:13:42.282Z,80.87
2022-12-01T21:16:19.149Z,81.54
2022-12-01T21:18:53.484Z,80.78
2022-12-01T21:21:24.514Z,80.95
2022-12-01T21:24:00.205Z,81.13
2022-12-01T21:26:26.763Z,80.60
2022-12-01T21:28:58.740Z,81.88
2022-12-01T21:31:25.680Z,81.18
2022-12-01T21:33:52.732Z,81.80
2022-12-01T21:36:22.255Z,82.38
2022-12-01T21:38:53.891Z,81.99
2022-12-01T21:41:30.537Z,81.45
2022-12-01T21:44:02.571Z,81.18
2022-12-01T21:46:29.927Z,82.13
2022-12-01T21:48:56.590Z,81.52
2022-12-01T21:51:24.997Z,81.98
2022-12-01T21:53:55.620Z,81.47
2022-12-01T21:56:25.445Z,82.85
2022-12-01T21:58:53.220Z,81.95
2022-12-01T22:01:26.996Z,81.84
2022-12-01T22:04:00.571Z,82.36
2022-12-01T22:06:35.930Z,82.70
2022-12-01T22:09:31.471Z,81.77
2022-12-01T22:12:00.291Z,82.56
2022-12-01T22:14:34.555Z,83.60
2022-12-01T22:17:07.233Z,81.98
2022-12-01T22:19:35.444Z,81.61
2022-12-01T22:22:11.129Z,82.01
2022-12-01T22:24:43.802Z,81.37
2022-12-01T22:27:35.731Z,82.66
2022-12-01T22:30:16.648Z,81.77
2022-12-01T22:32:59.264Z,81.93
2022-12-01T22:35:36.410Z,83.28
2022-12-01T22:38:05.662Z,84.82
2022-12-01T22:40:56.656Z,84.64
2022-12-01T22:43:39.064Z,82.76
2022-12-01T22:46:26.145Z,84.10
2022-12-01T22:48:58.880Z,83.88
2022-12-01T22:51:28.778Z,84.06
2022-12-01T22:54:05.949Z,83.64
2022-12-01T22:56:39.895Z,83.48
2022-12-01T22:59:20.793Z,82.53
2022-12-01T23:01:59.724Z,82.31
2022-12-01T23:04:31.072Z,83.05
2022-12-01T23:07:31.635Z,82.09
2022-12-01T23:10:18.049Z,82.56
2022-12-01T23:12:46.685Z,82.89
2022-12-01T23:15:25.408Z,82.94
2022-12-01T23:17:52.534Z,81.28
2022-12-01T23:20:22.105Z,83.00
2022-12-01T23:22:48.583Z,82.40
2022-12-01T23:25:18.239Z,82.86
2022-12-01T23:27:45.774Z,83.53
2022-12-01T23:30:14.630Z,84.14
2022-12-01T23:32:41.533Z,83.65
2022-12-01T23:35:16.497Z,83.11
2022-12-01T23:37:46.334Z,81.96
2022-12-01T23:40:33.055Z,81.90
2022-12-01T23:43:13.699Z,81.39
2022-12-01T23:45:40.388Z,81.66
2022-12-01T23:48:19.022Z,81.79
2022-12-01T23:50:46.637Z,82.14
2022-12-01T23:53:28.814Z,82.12
2022-12-01T23:56:02.204Z,82.28
2022-12-01T23:58:28.792Z,81.80
